Albany, California
Current Conditions -  °F | °C
As of 7:53 AM on Thursday 27 Nov 2014 (Local Time) from KOAK Reporting Station
Light Fog Light Fog  
Wind Chill: 47°   Ceiling: 20000
Heat Index: 47°   Visibility: 5mi
Dew Point: 44°   Wind: 0mph
Humidity: 90%   Direction: NA
Pressure: 30.18"   Gusts: NA
Location:  37.89°N, 122.29°W
Report Text: KOAK 271553Z 00000KT 5SM MIFG BR BKN200 08/07 A3018 RMK AO2 SLP219 T00830067
Loading
Personal Weather Stations






























Interactive Weather Map New forecast layout! Learn more

10-Day Weather Forecast

Advertisements
Track Severe Weather on mobile